TDPD/DOM METAR and TAF weather

Enter ICAO airport designator
Station Type Date Time Source
TDPD METAR 2020/01/28 21:00 UTC NOAA

TDPD 282100Z 13005KT 9999 BKN018 27/22 Q1013


Station Type Date Time Source
TDPD Decoded METAR 2020/01/28 21:00 UTC NOAA

Melville Hall Airport, Dominica (TDPD) 15-32N 061-18W 14M
Jan 28, 2020 - 04:00 PM EST / 2020.01.28 2100 UTC
Wind: from the SE (130 degrees) at 6 MPH (5 KT):0
Visibility: greater than 7 mile(s):0
Sky conditions: mostly cloudy
Temperature: 80 F (27 C)
Dew Point: 71 F (22 C)
Relative Humidity: 74%
Pressure (altimeter): 29.91 in. Hg (1013 hPa)
ob: TDPD 282100Z 13005KT 9999 BKN018 27/22 Q1013
cycle: 21

Station Type Date Time Source
TDPD TAF 2020/01/28 18:59 UTC NOAA

TAF TDPD 281700Z 2818/2918 13007KT 9999 SCT020

Example: see airport list